Naxera, Virginia
Current Conditions -  °F | °C
As of 9:55 PM on Monday 20 Oct 2014 (Local Time) from KW75 Reporting Station
Clear Clear  
Wind Chill: 51°   Ceiling: Unl
Heat Index: 51°   Visibility: 10mi
Dew Point: 46°   Wind: 3mph
Humidity: 81%   Direction: 160°SSE
Pressure: 29.99"   Gusts: NA
Location:  37.4386°N, 76.5499°W
Report Text: KW75 210155Z AUTO 16003KT 10SM CLR 11/08 A2999 RMK AO1 T01070075
Loading
Personal Weather Stations






























Interactive Weather Map
Tropical Storm Tracking
New forecast layout! Learn more

10-Day Weather Forecast

Advertisements
Track Severe Weather on mobile